sensor_id;sensor_type;location;lat;lon;timestamp;pressure;altitude;pressure_sealevel;temperature;humidity
36014;BME280;22275;43.208;27.620;2022-09-04T00:02:32;101694.81;;;20.02;100.00
36014;BME280;22275;43.208;27.620;2022-09-04T00:05:10;101698.81;;;20.08;100.00
36014;BME280;22275;43.208;27.620;2022-09-04T00:07:46;101706.13;;;20.06;100.00
36014;BME280;22275;43.208;27.620;2022-09-04T00:10:18;101695.28;;;20.07;100.00
36014;BME280;22275;43.208;27.620;2022-09-04T00:12:52;101710.16;;;20.00;100.00
36014;BME280;22275;43.208;27.620;2022-09-04T00:15:24;101707.00;;;19.95;100.00
36014;BME280;22275;43.208;27.620;2022-09-04T00:17:55;101696.25;;;20.06;100.00
36014;BME280;22275;43.208;27.620;2022-09-04T00:20:37;101706.78;;;19.87;100.00
36014;BME280;22275;43.208;27.620;2022-09-04T00:23:14;101692.81;;;19.95;100.00
36014;BME280;22275;43.208;27.620;2022-09-04T00:25:48;101695.59;;;19.93;100.00
36014;BME280;22275;43.208;27.620;2022-09-04T00:28:29;101705.34;;;19.83;100.00
36014;BME280;22275;43.208;27.620;2022-09-04T00:31:06;101697.28;;;19.94;100.00
36014;BME280;22275;43.208;27.620;2022-09-04T00:33:45;101703.56;;;20.04;100.00
36014;BME280;22275;43.208;27.620;2022-09-04T00:36:18;101692.81;;;19.84;100.00
36014;BME280;22275;43.208;27.620;2022-09-04T00:38:51;101692.84;;;20.04;100.00
36014;BME280;22275;43.208;27.620;2022-09-04T00:41:27;101690.22;;;19.93;100.00
36014;BME280;22275;43.208;27.620;2022-09-04T00:44:29;101693.78;;;20.26;100.00
36014;BME280;22275;43.208;27.620;2022-09-04T00:47:08;101690.88;;;20.18;100.00
36014;BME280;22275;43.208;27.620;2022-09-04T00:56:28;101682.34;;;20.13;100.00
36014;BME280;22275;43.208;27.620;2022-09-04T00:59:12;101698.13;;;20.27;100.00
36014;BME280;22275;43.208;27.620;2022-09-04T01:01:46;101696.63;;;20.34;100.00
36014;BME280;22275;43.208;27.620;2022-09-04T01:04:27;101710.41;;;20.50;100.00
36014;BME280;22275;43.208;27.620;2022-09-04T01:07:06;101709.44;;;20.30;100.00
36014;BME280;22275;43.208;27.620;2022-09-04T01:10:07;101711.66;;;20.25;100.00
36014;BME280;22275;43.208;27.620;2022-09-04T01:12:45;101709.84;;;20.15;100.00
36014;BME280;22275;43.208;27.620;2022-09-04T01:15:19;101719.34;;;20.07;100.00
36014;BME280;22275;43.208;27.620;2022-09-04T01:17:59;101710.72;;;20.04;100.00
36014;BME280;22275;43.208;27.620;2022-09-04T01:20:50;101703.50;;;20.16;100.00
36014;BME280;22275;43.208;27.620;2022-09-04T01:26:31;101706.19;;;20.16;100.00
36014;BME280;22275;43.208;27.620;2022-09-04T01:29:13;101721.56;;;19.71;100.00
36014;BME280;22275;43.208;27.620;2022-09-04T01:31:47;101716.88;;;19.95;100.00
36014;BME280;22275;43.208;27.620;2022-09-04T01:34:27;101708.00;;;19.94;100.00
36014;BME280;22275;43.208;27.620;2022-09-04T01:37:08;101724.06;;;19.83;100.00
36014;BME280;22275;43.208;27.620;2022-09-04T01:39:39;101719.09;;;20.11;100.00
36014;BME280;22275;43.208;27.620;2022-09-04T01:42:15;101713.66;;;20.01;100.00
36014;BME280;22275;43.208;27.620;2022-09-04T01:44:45;101717.22;;;19.90;100.00
36014;BME280;22275;43.208;27.620;2022-09-04T01:47:16;101709.16;;;19.81;100.00
36014;BME280;22275;43.208;27.620;2022-09-04T01:49:52;101716.88;;;19.95;100.00
36014;BME280;22275;43.208;27.620;2022-09-04T01:52:34;101720.31;;;20.06;100.00
36014;BME280;22275;43.208;27.620;2022-09-04T01:55:11;101714.00;;;20.07;100.00
36014;BME280;22275;43.208;27.620;2022-09-04T01:57:54;101722.88;;;20.40;100.00
36014;BME280;22275;43.208;27.620;2022-09-04T02:00:26;101729.22;;;20.59;100.00
36014;BME280;22275;43.208;27.620;2022-09-04T02:03:01;101731.81;;;20.50;100.00
36014;BME280;22275;43.208;27.620;2022-09-04T02:05:36;101734.56;;;20.80;100.00
36014;BME280;22275;43.208;27.620;2022-09-04T02:08:20;101729.53;;;20.45;100.00
36014;BME280;22275;43.208;27.620;2022-09-04T02:10:56;101729.97;;;20.30;100.00
36014;BME280;22275;43.208;27.620;2022-09-04T02:13:35;101733.06;;;20.25;100.00
36014;BME280;22275;43.208;27.620;2022-09-04T02:16:14;101745.09;;;20.20;100.00
36014;BME280;22275;43.208;27.620;2022-09-04T02:18:54;101745.94;;;19.88;100.00
36014;BME280;22275;43.208;27.620;2022-09-04T02:21:28;101744.13;;;20.09;100.00
36014;BME280;22275;43.208;27.620;2022-09-04T02:24:03;101756.13;;;19.94;100.00
36014;BME280;22275;43.208;27.620;2022-09-04T02:26:36;101757.69;;;19.97;100.00
36014;BME280;22275;43.208;27.620;2022-09-04T02:29:14;101752.06;;;20.11;100.00
36014;BME280;22275;43.208;27.620;2022-09-04T02:31:51;101761.22;;;19.97;100.00
36014;BME280;22275;43.208;27.620;2022-09-04T02:34:28;101765.63;;;19.87;100.00
36014;BME280;22275;43.208;27.620;2022-09-04T02:37:06;101769.03;;;19.89;100.00
36014;BME280;22275;43.208;27.620;2022-09-04T02:39:46;101759.19;;;20.22;100.00
36014;BME280;22275;43.208;27.620;2022-09-04T02:42:23;101770.59;;;20.24;100.00
36014;BME280;22275;43.208;27.620;2022-09-04T02:45:04;101761.31;;;20.39;100.00
36014;BME280;22275;43.208;27.620;2022-09-04T02:47:43;101777.97;;;20.42;100.00
36014;BME280;22275;43.208;27.620;2022-09-04T02:50:24;101771.19;;;20.59;100.00
36014;BME280;22275;43.208;27.620;2022-09-04T02:53:05;101770.72;;;20.75;100.00
36014;BME280;22275;43.208;27.620;2022-09-04T02:55:51;101783.22;;;20.64;100.00
36014;BME280;22275;43.208;27.620;2022-09-04T02:58:31;101778.16;;;20.30;100.00
36014;BME280;22275;43.208;27.620;2022-09-04T03:01:09;101782.53;;;19.88;100.00
36014;BME280;22275;43.208;27.620;2022-09-04T03:03:42;101781.81;;;19.86;100.00
36014;BME280;22275;43.208;27.620;2022-09-04T03:06:16;101773.78;;;19.86;100.00
36014;BME280;22275;43.208;27.620;2022-09-04T03:08:52;101773.34;;;19.47;100.00
36014;BME280;22275;43.208;27.620;2022-09-04T03:11:26;101768.97;;;19.35;100.00
36014;BME280;22275;43.208;27.620;2022-09-04T03:14:02;101775.66;;;19.52;100.00
36014;BME280;22275;43.208;27.620;2022-09-04T03:16:38;101780.88;;;19.42;100.00
36014;BME280;22275;43.208;27.620;2022-09-04T03:19:14;101779.38;;;19.16;100.00
36014;BME280;22275;43.208;27.620;2022-09-04T03:21:49;101794.59;;;19.27;100.00
36014;BME280;22275;43.208;27.620;2022-09-04T03:24:22;101795.34;;;19.51;100.00
36014;BME280;22275;43.208;27.620;2022-09-04T03:26:55;101802.00;;;19.68;100.00
36014;BME280;22275;43.208;27.620;2022-09-04T03:29:29;101807.13;;;19.60;100.00
36014;BME280;22275;43.208;27.620;2022-09-04T03:32:11;101799.31;;;19.34;100.00
36014;BME280;22275;43.208;27.620;2022-09-04T03:34:47;101802.50;;;19.50;100.00
36014;BME280;22275;43.208;27.620;2022-09-04T03:37:44;101808.53;;;19.30;100.00
36014;BME280;22275;43.208;27.620;2022-09-04T03:40:25;101811.22;;;19.19;100.00
36014;BME280;22275;43.208;27.620;2022-09-04T03:43:11;101810.63;;;19.38;100.00
36014;BME280;22275;43.208;27.620;2022-09-04T03:45:47;101808.44;;;19.21;100.00
36014;BME280;22275;43.208;27.620;2022-09-04T03:48:33;101808.44;;;19.21;100.00
36014;BME280;22275;43.208;27.620;2022-09-04T03:51:13;101806.47;;;19.12;100.00
36014;BME280;22275;43.208;27.620;2022-09-04T03:53:47;101807.09;;;19.04;100.00
36014;BME280;22275;43.208;27.620;2022-09-04T03:56:48;101817.16;;;19.01;100.00
36014;BME280;22275;43.208;27.620;2022-09-04T03:59:32;101813.00;;;19.08;100.00
36014;BME280;22275;43.208;27.620;2022-09-04T04:02:09;101823.13;;;19.15;100.00
36014;BME280;22275;43.208;27.620;2022-09-04T04:04:57;101817.16;;;19.23;100.00
36014;BME280;22275;43.208;27.620;2022-09-04T04:07:35;101815.69;;;19.08;100.00
36014;BME280;22275;43.208;27.620;2022-09-04T04:10:18;101817.78;;;19.26;100.00
36014;BME280;22275;43.208;27.620;2022-09-04T04:13:09;101823.47;;;19.22;100.00
36014;BME280;22275;43.208;27.620;2022-09-04T04:15:48;101828.38;;;19.39;100.00
36014;BME280;22275;43.208;27.620;2022-09-04T04:18:36;101828.59;;;19.47;100.00
36014;BME280;22275;43.208;27.620;2022-09-04T04:21:17;101832.50;;;19.43;100.00
36014;BME280;22275;43.208;27.620;2022-09-04T04:26:55;101823.78;;;19.52;100.00
36014;BME280;22275;43.208;27.620;2022-09-04T04:29:47;101818.53;;;19.62;100.00
36014;BME280;22275;43.208;27.620;2022-09-04T04:32:30;101822.50;;;19.78;100.00
36014;BME280;22275;43.208;27.620;2022-09-04T04:35:08;101822.91;;;19.74;100.00
36014;BME280;22275;43.208;27.620;2022-09-04T04:37:50;101823.84;;;19.95;100.00
36014;BME280;22275;43.208;27.620;2022-09-04T04:40:30;101828.13;;;19.64;100.00
36014;BME280;22275;43.208;27.620;2022-09-04T04:43:05;101818.16;;;19.77;100.00
36014;BME280;22275;43.208;27.620;2022-09-04T04:45:42;101816.97;;;19.48;100.00
36014;BME280;22275;43.208;27.620;2022-09-04T04:48:38;101814.53;;;19.56;100.00
36014;BME280;22275;43.208;27.620;2022-09-04T04:51:32;101821.69;;;19.44;100.00
36014;BME280;22275;43.208;27.620;2022-09-04T04:54:45;101820.22;;;19.63;100.00
36014;BME280;22275;43.208;27.620;2022-09-04T04:57:26;101818.78;;;19.47;100.00
36014;BME280;22275;43.208;27.620;2022-09-04T05:00:04;101827.84;;;19.34;100.00
36014;BME280;22275;43.208;27.620;2022-09-04T05:02:38;101819.63;;;19.48;100.00
36014;BME280;22275;43.208;27.620;2022-09-04T05:05:12;101829.59;;;19.46;100.00
36014;BME280;22275;43.208;27.620;2022-09-04T05:07:46;101818.88;;;19.79;100.00
36014;BME280;22275;43.208;27.620;2022-09-04T05:10:21;101818.97;;;20.00;100.00
36014;BME280;22275;43.208;27.620;2022-09-04T05:12:58;101837.00;;;19.54;100.00
36014;BME280;22275;43.208;27.620;2022-09-04T05:15:34;101833.34;;;19.66;100.00
36014;BME280;22275;43.208;27.620;2022-09-04T05:18:07;101834.03;;;19.90;100.00
36014;BME280;22275;43.208;27.620;2022-09-04T05:20:43;101835.63;;;20.03;100.00
36014;BME280;22275;43.208;27.620;2022-09-04T05:23:24;101840.94;;;20.15;100.00
36014;BME280;22275;43.208;27.620;2022-09-04T05:26:01;101838.03;;;20.18;100.00
36014;BME280;22275;43.208;27.620;2022-09-04T05:28:43;101834.03;;;20.44;100.00
36014;BME280;22275;43.208;27.620;2022-09-04T05:31:21;101827.16;;;20.62;100.00
36014;BME280;22275;43.208;27.620;2022-09-04T05:33:57;101836.97;;;20.93;100.00
36014;BME280;22275;43.208;27.620;2022-09-04T05:36:34;101838.13;;;21.00;100.00
36014;BME280;22275;43.208;27.620;2022-09-04T05:39:08;101833.31;;;20.94;100.00
36014;BME280;22275;43.208;27.620;2022-09-04T05:41:53;101846.38;;;20.88;100.00
36014;BME280;22275;43.208;27.620;2022-09-04T05:44:35;101842.13;;;20.85;100.00
36014;BME280;22275;43.208;27.620;2022-09-04T05:47:11;101848.69;;;21.34;100.00
36014;BME280;22275;43.208;27.620;2022-09-04T05:50:02;101837.78;;;21.26;100.00
36014;BME280;22275;43.208;27.620;2022-09-04T05:52:55;101837.59;;;21.48;100.00
36014;BME280;22275;43.208;27.620;2022-09-04T05:55:53;101842.66;;;21.20;100.00
36014;BME280;22275;43.208;27.620;2022-09-04T05:58:41;101843.56;;;21.31;100.00
36014;BME280;22275;43.208;27.620;2022-09-04T06:01:21;101837.63;;;21.27;100.00
36014;BME280;22275;43.208;27.620;2022-09-04T06:04:16;101840.97;;;21.50;100.00
36014;BME280;22275;43.208;27.620;2022-09-04T06:06:55;101845.34;;;21.20;100.00
36014;BME280;22275;43.208;27.620;2022-09-04T06:09:30;101843.06;;;21.37;100.00
36014;BME280;22275;43.208;27.620;2022-09-04T06:15:33;101848.59;;;21.45;100.00
36014;BME280;22275;43.208;27.620;2022-09-04T06:18:15;101850.69;;;21.41;100.00
36014;BME280;22275;43.208;27.620;2022-09-04T06:20:54;101857.91;;;21.81;100.00
36014;BME280;22275;43.208;27.620;2022-09-04T06:23:37;101854.84;;;21.95;100.00
36014;BME280;22275;43.208;27.620;2022-09-04T06:26:33;101859.44;;;21.73;100.00
36014;BME280;22275;43.208;27.620;2022-09-04T06:29:23;101864.16;;;21.60;100.00
36014;BME280;22275;43.208;27.620;2022-09-04T06:32:25;101862.91;;;21.95;100.00
36014;BME280;22275;43.208;27.620;2022-09-04T06:35:10;101851.97;;;22.46;100.00
36014;BME280;22275;43.208;27.620;2022-09-04T06:37:48;101857.94;;;22.59;100.00
36014;BME280;22275;43.208;27.620;2022-09-04T06:40:30;101854.97;;;22.62;100.00
36014;BME280;22275;43.208;27.620;2022-09-04T06:43:11;101864.13;;;22.30;100.00
36014;BME280;22275;43.208;27.620;2022-09-04T06:45:48;101849.16;;;22.47;100.00
36014;BME280;22275;43.208;27.620;2022-09-04T06:48:28;101850.03;;;22.67;100.00
36014;BME280;22275;43.208;27.620;2022-09-04T06:51:09;101851.97;;;23.13;100.00
36014;BME280;22275;43.208;27.620;2022-09-04T06:53:49;101835.84;;;23.13;100.00
36014;BME280;22275;43.208;27.620;2022-09-04T06:56:40;101844.94;;;23.49;100.00
36014;BME280;22275;43.208;27.620;2022-09-04T06:59:23;101842.00;;;23.32;100.00
36014;BME280;22275;43.208;27.620;2022-09-04T07:02:01;101860.69;;;23.43;100.00
36014;BME280;22275;43.208;27.620;2022-09-04T07:04:43;101849.09;;;23.70;100.00
36014;BME280;22275;43.208;27.620;2022-09-04T07:07:20;101849.91;;;23.43;100.00
36014;BME280;22275;43.208;27.620;2022-09-04T07:09:55;101846.84;;;23.93;100.00
36014;BME280;22275;43.208;27.620;2022-09-04T07:15:34;101854.00;;;24.02;100.00
36014;BME280;22275;43.208;27.620;2022-09-04T07:18:14;101846.06;;;24.10;100.00
36014;BME280;22275;43.208;27.620;2022-09-04T07:20:54;101859.19;;;23.59;100.00
36014;BME280;22275;43.208;27.620;2022-09-04T07:23:33;101858.19;;;23.87;100.00
36014;BME280;22275;43.208;27.620;2022-09-04T07:26:15;101858.88;;;24.43;100.00
36014;BME280;22275;43.208;27.620;2022-09-04T07:28:58;101863.81;;;24.66;100.00
36014;BME280;22275;43.208;27.620;2022-09-04T07:31:38;101851.56;;;24.53;100.00
36014;BME280;22275;43.208;27.620;2022-09-04T07:34:12;101872.09;;;24.37;100.00
36014;BME280;22275;43.208;27.620;2022-09-04T07:36:50;101856.91;;;24.18;100.00
36014;BME280;22275;43.208;27.620;2022-09-04T07:39:23;101860.41;;;24.28;100.00
36014;BME280;22275;43.208;27.620;2022-09-04T07:42:00;101866.47;;;24.30;100.00
36014;BME280;22275;43.208;27.620;2022-09-04T07:44:36;101862.63;;;24.50;100.00
36014;BME280;22275;43.208;27.620;2022-09-04T07:47:12;101862.41;;;24.44;100.00
36014;BME280;22275;43.208;27.620;2022-09-04T07:49:50;101859.09;;;24.68;100.00
36014;BME280;22275;43.208;27.620;2022-09-04T07:52:29;101862.94;;;24.47;100.00
36014;BME280;22275;43.208;27.620;2022-09-04T07:55:13;101870.41;;;24.36;100.00
36014;BME280;22275;43.208;27.620;2022-09-04T08:01:07;101856.94;;;24.53;100.00
36014;BME280;22275;43.208;27.620;2022-09-04T08:04:07;101852.53;;;24.70;100.00
36014;BME280;22275;43.208;27.620;2022-09-04T08:06:44;101865.09;;;24.26;100.00
36014;BME280;22275;43.208;27.620;2022-09-04T08:09:36;101860.81;;;24.69;100.00
36014;BME280;22275;43.208;27.620;2022-09-04T08:12:20;101853.69;;;24.68;100.00
36014;BME280;22275;43.208;27.620;2022-09-04T08:14:54;101856.25;;;24.51;100.00
36014;BME280;22275;43.208;27.620;2022-09-04T08:17:33;101840.41;;;25.35;100.00
36014;BME280;22275;43.208;27.620;2022-09-04T08:20:16;101839.81;;;25.24;100.00
36014;BME280;22275;43.208;27.620;2022-09-04T08:22:54;101837.25;;;25.14;100.00
36014;BME280;22275;43.208;27.620;2022-09-04T08:25:27;101828.56;;;25.28;100.00
36014;BME280;22275;43.208;27.620;2022-09-04T08:30:53;101817.78;;;25.28;100.00
36014;BME280;22275;43.208;27.620;2022-09-04T08:33:43;101829.41;;;25.54;100.00
36014;BME280;22275;43.208;27.620;2022-09-04T08:36:22;101830.69;;;25.42;100.00
36014;BME280;22275;43.208;27.620;2022-09-04T08:39:06;101820.47;;;25.28;100.00
36014;BME280;22275;43.208;27.620;2022-09-04T08:47:49;101821.97;;;25.48;100.00
36014;BME280;22275;43.208;27.620;2022-09-04T08:50:56;101820.97;;;25.32;100.00
36014;BME280;22275;43.208;27.620;2022-09-04T08:53:51;101822.47;;;25.52;100.00
36014;BME280;22275;43.208;27.620;2022-09-04T08:56:29;101807.34;;;25.59;100.00
36014;BME280;22275;43.208;27.620;2022-09-04T09:03:00;101799.06;;;25.60;100.00
36014;BME280;22275;43.208;27.620;2022-09-04T09:06:14;101791.53;;;26.30;100.00
36014;BME280;22275;43.208;27.620;2022-09-04T09:09:18;101790.19;;;26.42;100.00
36014;BME280;22275;43.208;27.620;2022-09-04T09:12:22;101779.34;;;26.18;100.00
36014;BME280;22275;43.208;27.620;2022-09-04T09:18:16;101769.72;;;26.64;100.00
36014;BME280;22275;43.208;27.620;2022-09-04T09:20:54;101775.16;;;26.56;100.00
36014;BME280;22275;43.208;27.620;2022-09-04T09:23:37;101775.28;;;26.62;100.00
36014;BME280;22275;43.208;27.620;2022-09-04T09:26:23;101782.06;;;26.99;100.00
36014;BME280;22275;43.208;27.620;2022-09-04T09:29:13;101787.97;;;26.38;100.00
36014;BME280;22275;43.208;27.620;2022-09-04T09:38:33;101798.78;;;26.86;100.00
36014;BME280;22275;43.208;27.620;2022-09-04T09:41:37;101795.91;;;27.04;100.00
36014;BME280;22275;43.208;27.620;2022-09-04T09:47:35;101783.72;;;27.63;100.00
36014;BME280;22275;43.208;27.620;2022-09-04T09:50:38;101773.59;;;28.56;100.00
36014;BME280;22275;43.208;27.620;2022-09-04T09:53:42;101786.72;;;27.98;100.00
36014;BME280;22275;43.208;27.620;2022-09-04T10:00:13;101791.47;;;27.66;100.00
36014;BME280;22275;43.208;27.620;2022-09-04T10:03:07;101782.91;;;27.54;100.00
36014;BME280;22275;43.208;27.620;2022-09-04T10:18:59;101787.47;;;26.82;100.00
36014;BME280;22275;43.208;27.620;2022-09-04T10:39:06;101792.72;;;27.86;100.00
36014;BME280;22275;43.208;27.620;2022-09-04T10:42:02;101782.47;;;27.73;100.00
36014;BME280;22275;43.208;27.620;2022-09-04T10:45:14;101789.31;;;27.53;100.00
36014;BME280;22275;43.208;27.620;2022-09-04T10:51:19;101792.56;;;28.64;100.00
36014;BME280;22275;43.208;27.620;2022-09-04T10:57:11;101804.13;;;27.73;100.00
36014;BME280;22275;43.208;27.620;2022-09-04T11:00:07;101794.44;;;27.48;100.00
36014;BME280;22275;43.208;27.620;2022-09-04T11:09:06;101789.25;;;27.22;100.00
36014;BME280;22275;43.208;27.620;2022-09-04T11:12:10;101797.31;;;27.30;100.00
36014;BME280;22275;43.208;27.620;2022-09-04T11:15:00;101792.75;;;27.47;100.00
36014;BME280;22275;43.208;27.620;2022-09-04T11:17:52;101791.47;;;27.66;100.00
36014;BME280;22275;43.208;27.620;2022-09-04T11:29:54;101784.66;;;28.09;100.00
36014;BME280;22275;43.208;27.620;2022-09-04T11:32:40;101787.44;;;28.23;100.00
36014;BME280;22275;43.208;27.620;2022-09-04T11:38:50;101788.31;;;28.16;100.00
36014;BME280;22275;43.208;27.620;2022-09-04T11:44:37;101784.94;;;27.52;100.00
36014;BME280;22275;43.208;27.620;2022-09-04T11:50:41;101779.28;;;28.01;100.00
36014;BME280;22275;43.208;27.620;2022-09-04T11:56:31;101774.28;;;27.89;100.00
36014;BME280;22275;43.208;27.620;2022-09-04T11:59:19;101769.69;;;27.59;100.00
36014;BME280;22275;43.208;27.620;2022-09-04T12:02:11;101764.50;;;27.50;100.00
36014;BME280;22275;43.208;27.620;2022-09-04T12:05:05;101752.97;;;27.86;100.00
36014;BME280;22275;43.208;27.620;2022-09-04T12:07:52;101754.38;;;28.05;100.00
36014;BME280;22275;43.208;27.620;2022-09-04T12:10:33;101748.75;;;27.76;100.00
36014;BME280;22275;43.208;27.620;2022-09-04T12:13:29;101759.19;;;27.56;100.00
36014;BME280;22275;43.208;27.620;2022-09-04T12:16:47;101763.25;;;27.91;100.00
36014;BME280;22275;43.208;27.620;2022-09-04T12:19:37;101759.09;;;27.80;100.00
36014;BME280;22275;43.208;27.620;2022-09-04T12:32:20;101756.22;;;27.74;100.00
36014;BME280;22275;43.208;27.620;2022-09-04T12:35:14;101753.41;;;28.43;96.78
36014;BME280;22275;43.208;27.620;2022-09-04T12:38:05;101753.88;;;28.24;96.22
36014;BME280;22275;43.208;27.620;2022-09-04T12:40:47;101746.44;;;28.04;96.72
36014;BME280;22275;43.208;27.620;2022-09-04T12:43:30;101744.03;;;28.09;96.83
36014;BME280;22275;43.208;27.620;2022-09-04T12:46:12;101739.25;;;28.11;97.43
36014;BME280;22275;43.208;27.620;2022-09-04T12:48:55;101744.72;;;28.03;96.98
36014;BME280;22275;43.208;27.620;2022-09-04T12:51:31;101751.06;;;27.56;99.65
36014;BME280;22275;43.208;27.620;2022-09-04T12:54:11;101744.59;;;27.65;97.02
36014;BME280;22275;43.208;27.620;2022-09-04T12:56:45;101721.91;;;28.20;94.25
36014;BME280;22275;43.208;27.620;2022-09-04T12:59:27;101731.78;;;28.13;93.56
36014;BME280;22275;43.208;27.620;2022-09-04T13:02:03;101729.66;;;28.00;95.21
36014;BME280;22275;43.208;27.620;2022-09-04T13:04:42;101744.91;;;27.70;97.55
36014;BME280;22275;43.208;27.620;2022-09-04T13:07:30;101736.44;;;27.96;97.54
36014;BME280;22275;43.208;27.620;2022-09-04T13:10:06;101743.13;;;27.85;95.76
36014;BME280;22275;43.208;27.620;2022-09-04T13:12:44;101727.41;;;28.12;94.87
36014;BME280;22275;43.208;27.620;2022-09-04T13:15:22;101735.31;;;28.36;92.73
36014;BME280;22275;43.208;27.620;2022-09-04T13:18:01;101747.47;;;27.72;97.37
36014;BME280;22275;43.208;27.620;2022-09-04T13:20:42;101747.41;;;28.03;95.28
36014;BME280;22275;43.208;27.620;2022-09-04T13:23:26;101742.72;;;28.42;93.60
36014;BME280;22275;43.208;27.620;2022-09-04T13:26:14;101744.13;;;28.38;93.23
36014;BME280;22275;43.208;27.620;2022-09-04T13:28:55;101724.72;;;28.49;92.07
36014;BME280;22275;43.208;27.620;2022-09-04T13:31:42;101735.53;;;27.58;96.04
36014;BME280;22275;43.208;27.620;2022-09-04T13:34:20;101737.75;;;28.08;95.07
36014;BME280;22275;43.208;27.620;2022-09-04T13:36:57;101736.53;;;28.33;94.42
36014;BME280;22275;43.208;27.620;2022-09-04T13:40:04;101731.06;;;28.93;91.96
36014;BME280;22275;43.208;27.620;2022-09-04T13:45:49;101724.91;;;28.62;93.04
36014;BME280;22275;43.208;27.620;2022-09-04T13:48:25;101727.81;;;28.83;91.71
36014;BME280;22275;43.208;27.620;2022-09-04T13:51:00;101722.34;;;28.98;91.01
36014;BME280;22275;43.208;27.620;2022-09-04T13:53:32;101733.25;;;28.61;91.05
36014;BME280;22275;43.208;27.620;2022-09-04T13:56:05;101729.47;;;28.10;93.74
36014;BME280;22275;43.208;27.620;2022-09-04T13:58:38;101733.75;;;27.96;94.79
36014;BME280;22275;43.208;27.620;2022-09-04T14:01:15;101742.78;;;27.88;93.87
36014;BME280;22275;43.208;27.620;2022-09-04T14:03:48;101736.38;;;27.81;94.74
36014;BME280;22275;43.208;27.620;2022-09-04T14:06:19;101737.13;;;27.98;94.97
36014;BME280;22275;43.208;27.620;2022-09-04T14:08:48;101740.47;;;28.08;95.87
36014;BME280;22275;43.208;27.620;2022-09-04T14:11:39;101760.69;;;27.59;96.79
36014;BME280;22275;43.208;27.620;2022-09-04T14:14:34;101754.13;;;27.53;96.26
36014;BME280;22275;43.208;27.620;2022-09-04T14:17:09;101756.72;;;27.77;96.07
36014;BME280;22275;43.208;27.620;2022-09-04T14:19:47;101750.16;;;27.72;96.27
36014;BME280;22275;43.208;27.620;2022-09-04T14:22:27;101749.88;;;27.89;99.62
36014;BME280;22275;43.208;27.620;2022-09-04T14:25:03;101743.38;;;27.98;99.42
36014;BME280;22275;43.208;27.620;2022-09-04T14:27:40;101739.66;;;28.45;96.51
36014;BME280;22275;43.208;27.620;2022-09-04T14:30:13;101742.66;;;28.50;94.66
36014;BME280;22275;43.208;27.620;2022-09-04T14:33:01;101736.38;;;28.72;95.37
36014;BME280;22275;43.208;27.620;2022-09-04T14:35:35;101743.03;;;28.84;94.00
36014;BME280;22275;43.208;27.620;2022-09-04T14:41:00;101750.88;;;28.19;96.22
36014;BME280;22275;43.208;27.620;2022-09-04T14:43:40;101739.38;;;28.40;95.04
36014;BME280;22275;43.208;27.620;2022-09-04T14:46:18;101740.31;;;28.84;93.69
36014;BME280;22275;43.208;27.620;2022-09-04T14:49:01;101731.91;;;29.08;91.27
36014;BME280;22275;43.208;27.620;2022-09-04T14:51:33;101733.41;;;28.96;89.86
36014;BME280;22275;43.208;27.620;2022-09-04T14:54:02;101731.91;;;29.08;89.72
36014;BME280;22275;43.208;27.620;2022-09-04T14:56:33;101728.25;;;29.16;88.07
36014;BME280;22275;43.208;27.620;2022-09-04T14:59:11;101739.38;;;29.06;86.68
36014;BME280;22275;43.208;27.620;2022-09-04T15:01:59;101736.94;;;28.82;87.89
36014;BME280;22275;43.208;27.620;2022-09-04T15:04:32;101741.53;;;28.44;88.69
36014;BME280;22275;43.208;27.620;2022-09-04T15:07:18;101734.78;;;28.63;87.38
36014;BME280;22275;43.208;27.620;2022-09-04T15:09:49;101725.63;;;28.79;88.25
36014;BME280;22275;43.208;27.620;2022-09-04T15:12:22;101731.25;;;28.77;89.54
36014;BME280;22275;43.208;27.620;2022-09-04T15:14:54;101734.41;;;28.95;88.29
36014;BME280;22275;43.208;27.620;2022-09-04T15:17:25;101735.16;;;29.19;88.24
36014;BME280;22275;43.208;27.620;2022-09-04T15:19:59;101728.91;;;29.18;85.73
36014;BME280;22275;43.208;27.620;2022-09-04T15:22:32;101733.78;;;28.93;86.57
36014;BME280;22275;43.208;27.620;2022-09-04T15:25:05;101736.09;;;28.82;88.10
36014;BME280;22275;43.208;27.620;2022-09-04T15:27:41;101742.13;;;28.55;91.63
36014;BME280;22275;43.208;27.620;2022-09-04T15:30:17;101755.06;;;27.99;100.00
36014;BME280;22275;43.208;27.620;2022-09-04T15:32:46;101752.84;;;28.03;100.00
36014;BME280;22275;43.208;27.620;2022-09-04T15:35:21;101760.22;;;27.86;100.00
36014;BME280;22275;43.208;27.620;2022-09-04T15:38:02;101757.44;;;27.71;100.00
36014;BME280;22275;43.208;27.620;2022-09-04T15:40:33;101763.91;;;27.62;100.00
36014;BME280;22275;43.208;27.620;2022-09-04T15:43:10;101764.09;;;27.06;100.00
36014;BME280;22275;43.208;27.620;2022-09-04T15:45:44;101762.63;;;26.55;100.00
36014;BME280;22275;43.208;27.620;2022-09-04T15:48:20;101760.59;;;26.57;100.00
36014;BME280;22275;43.208;27.620;2022-09-04T15:50:57;101763.13;;;26.26;100.00
36014;BME280;22275;43.208;27.620;2022-09-04T15:53:29;101759.25;;;26.28;100.00
36014;BME280;22275;43.208;27.620;2022-09-04T15:56:03;101764.66;;;26.20;100.00
36014;BME280;22275;43.208;27.620;2022-09-04T15:58:43;101763.94;;;26.02;100.00